Terminal Aerodrome Forecast
Issued by NWS

Home | Current Version | Previous Version | Text Only | Print | Product List | Glossary On
Versions: 1 2 3 4 5 6 7 8 9 10 11 12
959
FTUS43 KGRR 221740
TAFLAN
TAF
KLAN 221740Z 2218/2318 32008G16KT P6SM SKC
     FM230100 00000KT P6SM SKC
     FM231500 20008KT P6SM SKC=

USA.gov is the U.S. government's official web portal to all federal, state and local government web resources and services.